sensor_id;sensor_type;location;lat;lon;timestamp;P1;durP1;ratioP1;P2;durP2;ratioP2
17193;SDS011;8713;48.388;10.928;2022-09-13T06:38:41;2.58;;;1.50;;
17193;SDS011;8713;48.388;10.928;2022-09-13T06:39:50;3.97;;;1.40;;
17193;SDS011;8713;48.388;10.928;2022-09-13T06:41:04;3.38;;;1.80;;
17193;SDS011;8713;48.388;10.928;2022-09-13T06:42:16;3.08;;;1.58;;
17193;SDS011;8713;48.388;10.928;2022-09-13T06:43:26;3.85;;;1.42;;
17193;SDS011;8713;48.388;10.928;2022-09-13T06:44:36;3.08;;;1.55;;
17193;SDS011;8713;48.388;10.928;2022-09-13T06:45:46;3.30;;;1.58;;
17193;SDS011;8713;48.388;10.928;2022-09-13T06:46:55;3.08;;;1.70;;
17193;SDS011;8713;48.388;10.928;2022-09-13T06:48:05;2.75;;;1.48;;
17193;SDS011;8713;48.388;10.928;2022-09-13T06:49:14;2.15;;;1.25;;
17193;SDS011;8713;48.388;10.928;2022-09-13T06:50:24;2.10;;;1.52;;
17193;SDS011;8713;48.388;10.928;2022-09-13T06:51:34;2.15;;;1.20;;
17193;SDS011;8713;48.388;10.928;2022-09-13T06:52:43;2.83;;;1.60;;
17193;SDS011;8713;48.388;10.928;2022-09-13T06:53:53;4.43;;;1.20;;
17193;SDS011;8713;48.388;10.928;2022-09-13T06:55:04;3.92;;;1.48;;
17193;SDS011;8713;48.388;10.928;2022-09-13T06:56:15;2.53;;;1.40;;
17193;SDS011;8713;48.388;10.928;2022-09-13T06:57:43;2.63;;;1.45;;
17193;SDS011;8713;48.388;10.928;2022-09-13T06:59:00;4.25;;;1.55;;
17193;SDS011;8713;48.388;10.928;2022-09-13T07:00:13;5.10;;;1.70;;
17193;SDS011;8713;48.388;10.928;2022-09-13T07:01:23;3.65;;;1.35;;
17193;SDS011;8713;48.388;10.928;2022-09-13T07:02:35;3.65;;;1.42;;
17193;SDS011;8713;48.388;10.928;2022-09-13T07:03:46;4.00;;;1.42;;
17193;SDS011;8713;48.388;10.928;2022-09-13T07:05:00;3.97;;;1.48;;
17193;SDS011;8713;48.388;10.928;2022-09-13T07:06:11;4.65;;;1.52;;
17193;SDS011;8713;48.388;10.928;2022-09-13T07:07:26;2.97;;;1.58;;
17193;SDS011;8713;48.388;10.928;2022-09-13T07:08:36;4.38;;;1.33;;
17193;SDS011;8713;48.388;10.928;2022-09-13T07:09:46;4.10;;;1.30;;
17193;SDS011;8713;48.388;10.928;2022-09-13T07:10:58;4.85;;;1.30;;
17193;SDS011;8713;48.388;10.928;2022-09-13T07:12:08;4.85;;;1.38;;
17193;SDS011;8713;48.388;10.928;2022-09-13T07:13:17;3.78;;;1.25;;
17193;SDS011;8713;48.388;10.928;2022-09-13T07:14:27;3.13;;;1.42;;
17193;SDS011;8713;48.388;10.928;2022-09-13T07:15:37;3.30;;;1.75;;
17193;SDS011;8713;48.388;10.928;2022-09-13T07:16:47;6.65;;;1.65;;
17193;SDS011;8713;48.388;10.928;2022-09-13T07:17:56;4.05;;;1.60;;
17193;SDS011;8713;48.388;10.928;2022-09-13T07:19:09;3.95;;;1.65;;
17193;SDS011;8713;48.388;10.928;2022-09-13T07:20:22;2.72;;;1.50;;
17193;SDS011;8713;48.388;10.928;2022-09-13T07:21:32;3.90;;;1.77;;
17193;SDS011;8713;48.388;10.928;2022-09-13T07:22:43;3.10;;;1.48;;
17193;SDS011;8713;48.388;10.928;2022-09-13T07:23:53;2.50;;;1.30;;
17193;SDS011;8713;48.388;10.928;2022-09-13T07:25:03;2.30;;;1.38;;
17193;SDS011;8713;48.388;10.928;2022-09-13T07:26:13;2.53;;;1.40;;
17193;SDS011;8713;48.388;10.928;2022-09-13T07:27:22;4.03;;;1.58;;
17193;SDS011;8713;48.388;10.928;2022-09-13T07:28:39;4.60;;;1.60;;
17193;SDS011;8713;48.388;10.928;2022-09-13T07:29:50;3.58;;;1.60;;
17193;SDS011;8713;48.388;10.928;2022-09-13T07:31:34;3.85;;;1.42;;
17193;SDS011;8713;48.388;10.928;2022-09-13T07:32:41;3.58;;;1.50;;
17193;SDS011;8713;48.388;10.928;2022-09-13T07:33:54;3.83;;;1.45;;
17193;SDS011;8713;48.388;10.928;2022-09-13T07:35:08;2.05;;;1.38;;
17193;SDS011;8713;48.388;10.928;2022-09-13T07:36:17;6.32;;;1.38;;
17193;SDS011;8713;48.388;10.928;2022-09-13T07:37:27;2.75;;;1.52;;
17193;SDS011;8713;48.388;10.928;2022-09-13T07:38:40;3.28;;;1.40;;
17193;SDS011;8713;48.388;10.928;2022-09-13T07:39:52;1.73;;;1.38;;
17193;SDS011;8713;48.388;10.928;2022-09-13T07:41:02;3.75;;;1.30;;
17193;SDS011;8713;48.388;10.928;2022-09-13T07:42:14;2.50;;;1.40;;
17193;SDS011;8713;48.388;10.928;2022-09-13T07:43:24;2.13;;;1.33;;
17193;SDS011;8713;48.388;10.928;2022-09-13T07:44:34;3.10;;;1.40;;
17193;SDS011;8713;48.388;10.928;2022-09-13T07:45:43;2.15;;;1.40;;
17193;SDS011;8713;48.388;10.928;2022-09-13T07:46:53;1.42;;;1.10;;
17193;SDS011;8713;48.388;10.928;2022-09-13T07:48:02;3.53;;;1.70;;
17193;SDS011;8713;48.388;10.928;2022-09-13T07:49:13;2.85;;;1.20;;
17193;SDS011;8713;48.388;10.928;2022-09-13T07:50:25;2.45;;;1.23;;
17193;SDS011;8713;48.388;10.928;2022-09-13T07:51:35;4.65;;;1.20;;
17193;SDS011;8713;48.388;10.928;2022-09-13T07:52:47;3.67;;;1.23;;
17193;SDS011;8713;48.388;10.928;2022-09-13T07:53:57;2.92;;;1.40;;
17193;SDS011;8713;48.388;10.928;2022-09-13T07:55:09;2.33;;;1.20;;
17193;SDS011;8713;48.388;10.928;2022-09-13T07:56:20;2.53;;;1.38;;
17193;SDS011;8713;48.388;10.928;2022-09-13T07:57:31;2.78;;;1.30;;
17193;SDS011;8713;48.388;10.928;2022-09-13T07:58:41;2.38;;;1.20;;
17193;SDS011;8713;48.388;10.928;2022-09-13T07:59:52;2.15;;;1.10;;
17193;SDS011;8713;48.388;10.928;2022-09-13T08:01:48;4.95;;;1.38;;
17193;SDS011;8713;48.388;10.928;2022-09-13T08:02:40;1.45;;;1.00;;
17193;SDS011;8713;48.388;10.928;2022-09-13T08:03:57;2.33;;;1.15;;
17193;SDS011;8713;48.388;10.928;2022-09-13T08:05:08;3.63;;;1.25;;
17193;SDS011;8713;48.388;10.928;2022-09-13T08:06:17;3.15;;;1.20;;
17193;SDS011;8713;48.388;10.928;2022-09-13T08:07:27;4.70;;;1.40;;
17193;SDS011;8713;48.388;10.928;2022-09-13T08:08:36;3.15;;;1.05;;
17193;SDS011;8713;48.388;10.928;2022-09-13T08:09:46;1.40;;;1.05;;
17193;SDS011;8713;48.388;10.928;2022-09-13T08:10:56;1.95;;;1.10;;
17193;SDS011;8713;48.388;10.928;2022-09-13T08:12:05;2.65;;;1.13;;
17193;SDS011;8713;48.388;10.928;2022-09-13T08:13:15;1.85;;;1.20;;
17193;SDS011;8713;48.388;10.928;2022-09-13T08:14:25;1.65;;;0.90;;
17193;SDS011;8713;48.388;10.928;2022-09-13T08:15:34;2.55;;;1.02;;
17193;SDS011;8713;48.388;10.928;2022-09-13T08:16:44;1.27;;;0.80;;
17193;SDS011;8713;48.388;10.928;2022-09-13T08:17:54;1.52;;;1.00;;
17193;SDS011;8713;48.388;10.928;2022-09-13T08:19:04;2.40;;;0.95;;
17193;SDS011;8713;48.388;10.928;2022-09-13T08:20:13;2.78;;;0.82;;
17193;SDS011;8713;48.388;10.928;2022-09-13T08:21:23;3.35;;;0.85;;
17193;SDS011;8713;48.388;10.928;2022-09-13T08:22:33;1.25;;;0.90;;
17193;SDS011;8713;48.388;10.928;2022-09-13T08:23:43;2.13;;;0.88;;
17193;SDS011;8713;48.388;10.928;2022-09-13T08:24:52;2.20;;;0.90;;
17193;SDS011;8713;48.388;10.928;2022-09-13T08:26:02;2.08;;;0.88;;
17193;SDS011;8713;48.388;10.928;2022-09-13T08:27:11;2.17;;;0.95;;
17193;SDS011;8713;48.388;10.928;2022-09-13T08:28:21;1.40;;;0.90;;
17193;SDS011;8713;48.388;10.928;2022-09-13T08:29:31;1.17;;;0.90;;
17193;SDS011;8713;48.388;10.928;2022-09-13T08:30:40;1.30;;;0.88;;
17193;SDS011;8713;48.388;10.928;2022-09-13T08:31:51;1.50;;;1.15;;
17193;SDS011;8713;48.388;10.928;2022-09-13T08:33:01;1.38;;;0.80;;
17193;SDS011;8713;48.388;10.928;2022-09-13T08:34:14;2.38;;;1.10;;
17193;SDS011;8713;48.388;10.928;2022-09-13T08:35:24;3.22;;;1.10;;
17193;SDS011;8713;48.388;10.928;2022-09-13T08:36:34;1.73;;;0.90;;
17193;SDS011;8713;48.388;10.928;2022-09-13T08:37:44;1.77;;;1.15;;
17193;SDS011;8713;48.388;10.928;2022-09-13T08:38:54;3.22;;;1.00;;
17193;SDS011;8713;48.388;10.928;2022-09-13T08:40:07;3.92;;;1.10;;
17193;SDS011;8713;48.388;10.928;2022-09-13T08:42:57;3.22;;;0.88;;
17193;SDS011;8713;48.388;10.928;2022-09-13T08:45:48;2.38;;;1.10;;
17193;SDS011;8713;48.388;10.928;2022-09-13T08:48:49;1.38;;;0.70;;
17193;SDS011;8713;48.388;10.928;2022-09-13T08:51:45;2.75;;;0.90;;
17193;SDS011;8713;48.388;10.928;2022-09-13T08:52:59;2.28;;;1.15;;
17193;SDS011;8713;48.388;10.928;2022-09-13T08:54:39;3.70;;;1.00;;
17193;SDS011;8713;48.388;10.928;2022-09-13T08:57:22;2.28;;;0.93;;
17193;SDS011;8713;48.388;10.928;2022-09-13T09:05:46;2.10;;;1.00;;
17193;SDS011;8713;48.388;10.928;2022-09-13T09:07:05;2.38;;;1.13;;
17193;SDS011;8713;48.388;10.928;2022-09-13T09:09:54;3.33;;;1.35;;
17193;SDS011;8713;48.388;10.928;2022-09-13T09:11:08;4.05;;;1.13;;
17193;SDS011;8713;48.388;10.928;2022-09-13T09:13:51;2.72;;;0.90;;
17193;SDS011;8713;48.388;10.928;2022-09-13T09:15:17;2.03;;;0.88;;
17193;SDS011;8713;48.388;10.928;2022-09-13T09:16:38;1.95;;;0.80;;
17193;SDS011;8713;48.388;10.928;2022-09-13T09:19:32;2.58;;;1.52;;
17193;SDS011;8713;48.388;10.928;2022-09-13T09:20:51;1.65;;;0.80;;
17193;SDS011;8713;48.388;10.928;2022-09-13T09:22:03;3.17;;;0.90;;
17193;SDS011;8713;48.388;10.928;2022-09-13T09:24:34;5.47;;;1.30;;
17193;SDS011;8713;48.388;10.928;2022-09-13T09:25:45;4.50;;;1.10;;
17193;SDS011;8713;48.388;10.928;2022-09-13T09:26:56;3.38;;;0.90;;
17193;SDS011;8713;48.388;10.928;2022-09-13T09:28:13;2.75;;;0.95;;
17193;SDS011;8713;48.388;10.928;2022-09-13T09:29:25;1.33;;;0.98;;
17193;SDS011;8713;48.388;10.928;2022-09-13T09:32:37;2.53;;;1.00;;
17193;SDS011;8713;48.388;10.928;2022-09-13T09:33:59;2.78;;;0.93;;
17193;SDS011;8713;48.388;10.928;2022-09-13T09:35:54;1.42;;;0.98;;
17193;SDS011;8713;48.388;10.928;2022-09-13T09:37:21;3.10;;;0.95;;
17193;SDS011;8713;48.388;10.928;2022-09-13T09:38:36;2.60;;;0.80;;
17193;SDS011;8713;48.388;10.928;2022-09-13T09:39:51;0.77;;;0.73;;
17193;SDS011;8713;48.388;10.928;2022-09-13T09:41:06;2.10;;;0.85;;
17193;SDS011;8713;48.388;10.928;2022-09-13T09:42:46;4.30;;;0.98;;
17193;SDS011;8713;48.388;10.928;2022-09-13T09:45:32;3.08;;;1.30;;
17193;SDS011;8713;48.388;10.928;2022-09-13T09:46:43;2.33;;;0.90;;
17193;SDS011;8713;48.388;10.928;2022-09-13T09:47:58;2.30;;;0.95;;
17193;SDS011;8713;48.388;10.928;2022-09-13T09:49:18;2.75;;;1.25;;
17193;SDS011;8713;48.388;10.928;2022-09-13T09:50:54;3.00;;;1.20;;
17193;SDS011;8713;48.388;10.928;2022-09-13T09:52:09;4.93;;;1.55;;
17193;SDS011;8713;48.388;10.928;2022-09-13T09:53:22;2.08;;;1.30;;
17193;SDS011;8713;48.388;10.928;2022-09-13T09:54:36;2.47;;;0.88;;
17193;SDS011;8713;48.388;10.928;2022-09-13T09:57:10;2.28;;;1.17;;
17193;SDS011;8713;48.388;10.928;2022-09-13T09:58:35;3.55;;;1.40;;
17193;SDS011;8713;48.388;10.928;2022-09-13T09:59:51;2.85;;;0.90;;
17193;SDS011;8713;48.388;10.928;2022-09-13T10:01:01;1.35;;;0.90;;
17193;SDS011;8713;48.388;10.928;2022-09-13T10:02:15;6.18;;;1.02;;
17193;SDS011;8713;48.388;10.928;2022-09-13T10:03:27;1.98;;;1.10;;
17193;SDS011;8713;48.388;10.928;2022-09-13T10:04:38;2.92;;;1.05;;
17193;SDS011;8713;48.388;10.928;2022-09-13T10:05:48;2.35;;;1.10;;
17193;SDS011;8713;48.388;10.928;2022-09-13T10:07:08;3.17;;;1.10;;
17193;SDS011;8713;48.388;10.928;2022-09-13T10:08:41;3.60;;;1.00;;
17193;SDS011;8713;48.388;10.928;2022-09-13T10:09:55;2.30;;;0.98;;
17193;SDS011;8713;48.388;10.928;2022-09-13T10:11:07;2.03;;;0.90;;
17193;SDS011;8713;48.388;10.928;2022-09-13T10:12:24;2.33;;;1.17;;
17193;SDS011;8713;48.388;10.928;2022-09-13T10:13:35;4.80;;;1.42;;
17193;SDS011;8713;48.388;10.928;2022-09-13T10:14:46;3.28;;;1.10;;
17193;SDS011;8713;48.388;10.928;2022-09-13T10:15:57;2.22;;;0.90;;
17193;SDS011;8713;48.388;10.928;2022-09-13T10:17:25;1.38;;;0.90;;
17193;SDS011;8713;48.388;10.928;2022-09-13T10:18:35;1.48;;;0.90;;
17193;SDS011;8713;48.388;10.928;2022-09-13T10:19:52;3.03;;;1.20;;
17193;SDS011;8713;48.388;10.928;2022-09-13T10:22:25;1.58;;;0.82;;
17193;SDS011;8713;48.388;10.928;2022-09-13T10:23:35;1.70;;;0.80;;
17193;SDS011;8713;48.388;10.928;2022-09-13T10:24:45;4.15;;;0.80;;
17193;SDS011;8713;48.388;10.928;2022-09-13T10:25:57;0.90;;;0.60;;
17193;SDS011;8713;48.388;10.928;2022-09-13T10:27:23;3.35;;;0.82;;
17193;SDS011;8713;48.388;10.928;2022-09-13T10:28:53;1.73;;;0.85;;
17193;SDS011;8713;48.388;10.928;2022-09-13T10:30:29;2.72;;;0.80;;
17193;SDS011;8713;48.388;10.928;2022-09-13T10:31:46;1.95;;;0.77;;
17193;SDS011;8713;48.388;10.928;2022-09-13T10:32:57;1.13;;;1.00;;
17193;SDS011;8713;48.388;10.928;2022-09-13T10:34:11;0.40;;;0.40;;
17193;SDS011;8713;48.388;10.928;2022-09-13T10:35:25;3.60;;;0.65;;
17193;SDS011;8713;48.388;10.928;2022-09-13T10:36:35;1.60;;;0.77;;
17193;SDS011;8713;48.388;10.928;2022-09-13T10:37:45;0.82;;;0.65;;
17193;SDS011;8713;48.388;10.928;2022-09-13T10:40:18;3.10;;;0.98;;
17193;SDS011;8713;48.388;10.928;2022-09-13T10:41:35;2.63;;;0.70;;
17193;SDS011;8713;48.388;10.928;2022-09-13T10:42:51;1.42;;;1.15;;
17193;SDS011;8713;48.388;10.928;2022-09-13T10:44:02;1.00;;;0.70;;
17193;SDS011;8713;48.388;10.928;2022-09-13T10:45:18;1.20;;;0.70;;
17193;SDS011;8713;48.388;10.928;2022-09-13T10:46:32;1.00;;;0.80;;
17193;SDS011;8713;48.388;10.928;2022-09-13T10:47:48;1.52;;;0.80;;
17193;SDS011;8713;48.388;10.928;2022-09-13T10:49:00;1.90;;;0.70;;
17193;SDS011;8713;48.388;10.928;2022-09-13T10:50:24;1.25;;;0.73;;
17193;SDS011;8713;48.388;10.928;2022-09-13T10:51:35;1.13;;;0.60;;
17193;SDS011;8713;48.388;10.928;2022-09-13T10:52:47;3.33;;;0.90;;
17193;SDS011;8713;48.388;10.928;2022-09-13T10:54:36;5.03;;;0.90;;
17193;SDS011;8713;48.388;10.928;2022-09-13T10:55:51;1.15;;;0.80;;
17193;SDS011;8713;48.388;10.928;2022-09-13T10:57:02;2.10;;;0.80;;
17193;SDS011;8713;48.388;10.928;2022-09-13T10:58:43;0.90;;;0.70;;
17193;SDS011;8713;48.388;10.928;2022-09-13T10:59:53;0.85;;;0.63;;
17193;SDS011;8713;48.388;10.928;2022-09-13T11:01:14;1.77;;;0.85;;
17193;SDS011;8713;48.388;10.928;2022-09-13T11:04:32;1.10;;;0.80;;
17193;SDS011;8713;48.388;10.928;2022-09-13T11:06:15;1.75;;;0.80;;
17193;SDS011;8713;48.388;10.928;2022-09-13T11:10:31;1.60;;;0.70;;
17193;SDS011;8713;48.388;10.928;2022-09-13T11:13:44;1.38;;;0.77;;
17193;SDS011;8713;48.388;10.928;2022-09-13T11:15:06;3.70;;;0.80;;
17193;SDS011;8713;48.388;10.928;2022-09-13T11:16:54;1.42;;;0.73;;
17193;SDS011;8713;48.388;10.928;2022-09-13T11:22:05;1.73;;;0.90;;
17193;SDS011;8713;48.388;10.928;2022-09-13T11:23:46;2.00;;;0.90;;
17193;SDS011;8713;48.388;10.928;2022-09-13T11:25:50;1.15;;;0.80;;
17193;SDS011;8713;48.388;10.928;2022-09-13T11:30:30;2.35;;;0.82;;
17193;SDS011;8713;48.388;10.928;2022-09-13T11:32:55;1.80;;;0.60;;
17193;SDS011;8713;48.388;10.928;2022-09-13T11:39:31;2.15;;;0.80;;
17193;SDS011;8713;48.388;10.928;2022-09-13T11:46:41;1.08;;;0.80;;
17193;SDS011;8713;48.388;10.928;2022-09-13T11:52:14;1.30;;;0.80;;
17193;SDS011;8713;48.388;10.928;2022-09-13T11:53:46;3.03;;;0.90;;
17193;SDS011;8713;48.388;10.928;2022-09-13T11:55:31;1.10;;;0.70;;
17193;SDS011;8713;48.388;10.928;2022-09-13T11:56:45;1.42;;;0.75;;
17193;SDS011;8713;48.388;10.928;2022-09-13T11:58:01;1.63;;;0.88;;
17193;SDS011;8713;48.388;10.928;2022-09-13T11:59:23;1.30;;;0.77;;
17193;SDS011;8713;48.388;10.928;2022-09-13T12:00:56;2.88;;;0.80;;
17193;SDS011;8713;48.388;10.928;2022-09-13T12:03:44;3.05;;;0.90;;
17193;SDS011;8713;48.388;10.928;2022-09-13T12:05:04;2.08;;;0.80;;
17193;SDS011;8713;48.388;10.928;2022-09-13T12:06:27;4.40;;;1.00;;
17193;SDS011;8713;48.388;10.928;2022-09-13T12:09:13;3.13;;;0.70;;
17193;SDS011;8713;48.388;10.928;2022-09-13T12:10:33;0.95;;;0.80;;
17193;SDS011;8713;48.388;10.928;2022-09-13T12:12:05;1.67;;;0.70;;
17193;SDS011;8713;48.388;10.928;2022-09-13T12:15:04;2.10;;;0.80;;
17193;SDS011;8713;48.388;10.928;2022-09-13T12:16:26;0.63;;;0.60;;
17193;SDS011;8713;48.388;10.928;2022-09-13T12:17:43;1.92;;;0.75;;
17193;SDS011;8713;48.388;10.928;2022-09-13T12:19:11;1.58;;;0.65;;
17193;SDS011;8713;48.388;10.928;2022-09-13T12:21:42;1.52;;;0.70;;
17193;SDS011;8713;48.388;10.928;2022-09-13T12:22:52;0.77;;;0.77;;
17193;SDS011;8713;48.388;10.928;2022-09-13T12:25:26;0.85;;;0.60;;
17193;SDS011;8713;48.388;10.928;2022-09-13T12:26:47;1.30;;;0.70;;
17193;SDS011;8713;48.388;10.928;2022-09-13T12:29:49;3.13;;;0.80;;
17193;SDS011;8713;48.388;10.928;2022-09-13T12:31:21;1.77;;;0.70;;
17193;SDS011;8713;48.388;10.928;2022-09-13T12:32:36;3.80;;;0.90;;
17193;SDS011;8713;48.388;10.928;2022-09-13T12:33:46;1.55;;;0.70;;
17193;SDS011;8713;48.388;10.928;2022-09-13T12:35:01;0.77;;;0.65;;
17193;SDS011;8713;48.388;10.928;2022-09-13T12:36:26;4.00;;;0.70;;
17193;SDS011;8713;48.388;10.928;2022-09-13T12:40:01;1.00;;;0.80;;
17193;SDS011;8713;48.388;10.928;2022-09-13T12:41:29;1.92;;;0.90;;
17193;SDS011;8713;48.388;10.928;2022-09-13T12:46:24;1.00;;;0.80;;
17193;SDS011;8713;48.388;10.928;2022-09-13T12:49:41;1.38;;;0.63;;
17193;SDS011;8713;48.388;10.928;2022-09-13T12:51:49;3.83;;;0.80;;
17193;SDS011;8713;48.388;10.928;2022-09-13T12:56:02;1.95;;;0.90;;
17193;SDS011;8713;48.388;10.928;2022-09-13T12:57:56;2.42;;;0.85;;
17193;SDS011;8713;48.388;10.928;2022-09-13T12:59:54;2.25;;;0.82;;
17193;SDS011;8713;48.388;10.928;2022-09-13T13:01:40;0.77;;;0.70;;
17193;SDS011;8713;48.388;10.928;2022-09-13T13:06:55;2.08;;;0.80;;
17193;SDS011;8713;48.388;10.928;2022-09-13T13:08:28;1.35;;;0.90;;
17193;SDS011;8713;48.388;10.928;2022-09-13T13:09:43;1.60;;;0.85;;
17193;SDS011;8713;48.388;10.928;2022-09-13T13:11:06;1.10;;;0.77;;
17193;SDS011;8713;48.388;10.928;2022-09-13T13:12:35;1.55;;;0.70;;
17193;SDS011;8713;48.388;10.928;2022-09-13T13:14:02;1.75;;;0.80;;
17193;SDS011;8713;48.388;10.928;2022-09-13T13:16:33;0.90;;;0.77;;
17193;SDS011;8713;48.388;10.928;2022-09-13T13:19:00;1.33;;;0.70;;
17193;SDS011;8713;48.388;10.928;2022-09-13T13:25:31;0.93;;;0.68;;
17193;SDS011;8713;48.388;10.928;2022-09-13T13:26:47;1.25;;;0.80;;
17193;SDS011;8713;48.388;10.928;2022-09-13T13:27:58;2.67;;;0.75;;
17193;SDS011;8713;48.388;10.928;2022-09-13T13:30:40;2.72;;;0.88;;
17193;SDS011;8713;48.388;10.928;2022-09-13T13:34:26;1.65;;;0.80;;
17193;SDS011;8713;48.388;10.928;2022-09-13T13:35:37;1.40;;;0.80;;
17193;SDS011;8713;48.388;10.928;2022-09-13T13:36:48;0.70;;;0.63;;
17193;SDS011;8713;48.388;10.928;2022-09-13T13:39:37;2.28;;;0.70;;
17193;SDS011;8713;48.388;10.928;2022-09-13T13:41:02;1.08;;;0.63;;
17193;SDS011;8713;48.388;10.928;2022-09-13T13:42:33;2.55;;;0.80;;
17193;SDS011;8713;48.388;10.928;2022-09-13T13:43:46;1.95;;;0.80;;
17193;SDS011;8713;48.388;10.928;2022-09-13T13:44:56;0.95;;;0.63;;
17193;SDS011;8713;48.388;10.928;2022-09-13T13:52:38;2.22;;;0.80;;
17193;SDS011;8713;48.388;10.928;2022-09-13T13:54:04;0.50;;;0.50;;
17193;SDS011;8713;48.388;10.928;2022-09-13T13:55:40;1.15;;;0.60;;
17193;SDS011;8713;48.388;10.928;2022-09-13T13:56:52;0.95;;;0.70;;
17193;SDS011;8713;48.388;10.928;2022-09-13T13:58:09;2.53;;;0.68;;
17193;SDS011;8713;48.388;10.928;2022-09-13T13:59:39;2.47;;;0.60;;
17193;SDS011;8713;48.388;10.928;2022-09-13T14:00:50;2.60;;;0.70;;
17193;SDS011;8713;48.388;10.928;2022-09-13T14:02:01;0.80;;;0.57;;
17193;SDS011;8713;48.388;10.928;2022-09-13T14:03:22;0.60;;;0.60;;
17193;SDS011;8713;48.388;10.928;2022-09-13T14:04:41;2.55;;;0.60;;
17193;SDS011;8713;48.388;10.928;2022-09-13T14:06:15;1.38;;;0.52;;
17193;SDS011;8713;48.388;10.928;2022-09-13T14:07:56;2.60;;;0.70;;
17193;SDS011;8713;48.388;10.928;2022-09-13T14:09:46;2.30;;;0.70;;
17193;SDS011;8713;48.388;10.928;2022-09-13T14:12:31;2.92;;;0.77;;
17193;SDS011;8713;48.388;10.928;2022-09-13T14:14:16;0.70;;;0.70;;
17193;SDS011;8713;48.388;10.928;2022-09-13T14:18:59;2.25;;;0.65;;
17193;SDS011;8713;48.388;10.928;2022-09-13T14:22:12;1.92;;;0.70;;
17193;SDS011;8713;48.388;10.928;2022-09-13T14:23:32;1.25;;;0.70;;
17193;SDS011;8713;48.388;10.928;2022-09-13T14:24:43;0.50;;;0.50;;
17193;SDS011;8713;48.388;10.928;2022-09-13T14:25:58;0.73;;;0.60;;
17193;SDS011;8713;48.388;10.928;2022-09-13T14:27:22;0.70;;;0.57;;
17193;SDS011;8713;48.388;10.928;2022-09-13T14:28:33;0.50;;;0.50;;
17193;SDS011;8713;48.388;10.928;2022-09-13T14:29:47;2.45;;;0.88;;
17193;SDS011;8713;48.388;10.928;2022-09-13T14:31:01;0.90;;;0.63;;
17193;SDS011;8713;48.388;10.928;2022-09-13T14:32:12;0.90;;;0.70;;
17193;SDS011;8713;48.388;10.928;2022-09-13T14:33:27;2.85;;;0.50;;
17193;SDS011;8713;48.388;10.928;2022-09-13T14:34:48;0.50;;;0.50;;
17193;SDS011;8713;48.388;10.928;2022-09-13T14:36:15;0.77;;;0.70;;
17193;SDS011;8713;48.388;10.928;2022-09-13T14:37:30;0.82;;;0.70;;
17193;SDS011;8713;48.388;10.928;2022-09-13T14:38:49;0.88;;;0.70;;
17193;SDS011;8713;48.388;10.928;2022-09-13T14:41:17;0.70;;;0.70;;
17193;SDS011;8713;48.388;10.928;2022-09-13T14:42:38;0.80;;;0.60;;
17193;SDS011;8713;48.388;10.928;2022-09-13T14:43:51;2.08;;;0.85;;
17193;SDS011;8713;48.388;10.928;2022-09-13T14:45:00;1.33;;;0.73;;
17193;SDS011;8713;48.388;10.928;2022-09-13T14:46:31;0.90;;;0.80;;
17193;SDS011;8713;48.388;10.928;2022-09-13T14:47:57;0.60;;;0.60;;
17193;SDS011;8713;48.388;10.928;2022-09-13T14:49:19;0.73;;;0.73;;
17193;SDS011;8713;48.388;10.928;2022-09-13T14:50:33;1.13;;;0.77;;
17193;SDS011;8713;48.388;10.928;2022-09-13T14:51:51;1.17;;;0.80;;
17193;SDS011;8713;48.388;10.928;2022-09-13T14:53:15;1.00;;;0.70;;
17193;SDS011;8713;48.388;10.928;2022-09-13T14:54:34;1.30;;;0.60;;
17193;SDS011;8713;48.388;10.928;2022-09-13T14:57:20;0.63;;;0.60;;
17193;SDS011;8713;48.388;10.928;2022-09-13T14:58:47;1.50;;;0.60;;
17193;SDS011;8713;48.388;10.928;2022-09-13T15:00:01;1.70;;;0.70;;
17193;SDS011;8713;48.388;10.928;2022-09-13T15:01:29;1.55;;;0.68;;
17193;SDS011;8713;48.388;10.928;2022-09-13T15:02:42;1.38;;;0.60;;
17193;SDS011;8713;48.388;10.928;2022-09-13T15:04:09;1.58;;;0.73;;
17193;SDS011;8713;48.388;10.928;2022-09-13T15:05:19;1.70;;;0.82;;
17193;SDS011;8713;48.388;10.928;2022-09-13T15:06:33;1.05;;;0.80;;
17193;SDS011;8713;48.388;10.928;2022-09-13T15:07:47;1.23;;;0.70;;
17193;SDS011;8713;48.388;10.928;2022-09-13T15:09:13;1.80;;;1.00;;
17193;SDS011;8713;48.388;10.928;2022-09-13T15:10:31;0.85;;;0.75;;
17193;SDS011;8713;48.388;10.928;2022-09-13T15:11:53;1.13;;;0.73;;
17193;SDS011;8713;48.388;10.928;2022-09-13T15:13:09;1.17;;;0.70;;
17193;SDS011;8713;48.388;10.928;2022-09-13T15:14:32;1.02;;;0.70;;
17193;SDS011;8713;48.388;10.928;2022-09-13T15:15:43;1.25;;;0.70;;
17193;SDS011;8713;48.388;10.928;2022-09-13T15:17:11;0.90;;;0.73;;
17193;SDS011;8713;48.388;10.928;2022-09-13T15:18:23;1.35;;;0.70;;
17193;SDS011;8713;48.388;10.928;2022-09-13T15:19:41;0.70;;;0.60;;
17193;SDS011;8713;48.388;10.928;2022-09-13T15:20:59;0.70;;;0.70;;
17193;SDS011;8713;48.388;10.928;2022-09-13T15:22:26;0.60;;;0.60;;
17193;SDS011;8713;48.388;10.928;2022-09-13T15:23:41;4.85;;;1.45;;
17193;SDS011;8713;48.388;10.928;2022-09-13T15:24:57;1.40;;;0.70;;
17193;SDS011;8713;48.388;10.928;2022-09-13T15:26:12;0.73;;;0.60;;
17193;SDS011;8713;48.388;10.928;2022-09-13T15:27:29;1.40;;;0.93;;
17193;SDS011;8713;48.388;10.928;2022-09-13T15:28:55;2.20;;;1.00;;
17193;SDS011;8713;48.388;10.928;2022-09-13T15:30:18;3.25;;;0.95;;
17193;SDS011;8713;48.388;10.928;2022-09-13T15:31:33;3.55;;;1.27;;
17193;SDS011;8713;48.388;10.928;2022-09-13T15:32:43;1.35;;;0.93;;
17193;SDS011;8713;48.388;10.928;2022-09-13T15:35:29;1.63;;;0.80;;
17193;SDS011;8713;48.388;10.928;2022-09-13T15:38:30;1.63;;;1.00;;
17193;SDS011;8713;48.388;10.928;2022-09-13T15:39:49;2.20;;;0.80;;
17193;SDS011;8713;48.388;10.928;2022-09-13T15:41:18;1.08;;;0.98;;
17193;SDS011;8713;48.388;10.928;2022-09-13T15:42:27;1.38;;;0.80;;
17193;SDS011;8713;48.388;10.928;2022-09-13T15:43:37;0.95;;;0.70;;
17193;SDS011;8713;48.388;10.928;2022-09-13T15:44:46;3.88;;;0.80;;
17193;SDS011;8713;48.388;10.928;2022-09-13T15:45:57;0.75;;;0.60;;
17193;SDS011;8713;48.388;10.928;2022-09-13T15:47:13;0.82;;;0.70;;
17193;SDS011;8713;48.388;10.928;2022-09-13T15:48:26;2.53;;;0.80;;
17193;SDS011;8713;48.388;10.928;2022-09-13T15:49:38;1.38;;;0.80;;
17193;SDS011;8713;48.388;10.928;2022-09-13T15:51:05;2.05;;;0.75;;
17193;SDS011;8713;48.388;10.928;2022-09-13T15:52:20;0.60;;;0.50;;
17193;SDS011;8713;48.388;10.928;2022-09-13T15:53:31;2.03;;;0.75;;
17193;SDS011;8713;48.388;10.928;2022-09-13T15:54:41;0.90;;;0.73;;
17193;SDS011;8713;48.388;10.928;2022-09-13T15:55:51;1.63;;;0.60;;
17193;SDS011;8713;48.388;10.928;2022-09-13T15:57:01;0.80;;;0.60;;
17193;SDS011;8713;48.388;10.928;2022-09-13T15:58:24;0.75;;;0.68;;
17193;SDS011;8713;48.388;10.928;2022-09-13T15:59:33;1.50;;;0.63;;
17193;SDS011;8713;48.388;10.928;2022-09-13T16:00:43;1.23;;;0.90;;
17193;SDS011;8713;48.388;10.928;2022-09-13T16:01:52;0.80;;;0.70;;
17193;SDS011;8713;48.388;10.928;2022-09-13T16:03:03;1.27;;;0.82;;
17193;SDS011;8713;48.388;10.928;2022-09-13T16:04:13;2.38;;;0.75;;
17193;SDS011;8713;48.388;10.928;2022-09-13T16:05:23;0.90;;;0.80;;
17193;SDS011;8713;48.388;10.928;2022-09-13T16:06:33;1.48;;;0.90;;
17193;SDS011;8713;48.388;10.928;2022-09-13T16:07:43;1.55;;;0.63;;
17193;SDS011;8713;48.388;10.928;2022-09-13T16:08:52;0.88;;;0.73;;
17193;SDS011;8713;48.388;10.928;2022-09-13T16:10:02;0.88;;;0.70;;
17193;SDS011;8713;48.388;10.928;2022-09-13T16:11:15;1.50;;;0.73;;
17193;SDS011;8713;48.388;10.928;2022-09-13T16:12:24;1.05;;;0.70;;
17193;SDS011;8713;48.388;10.928;2022-09-13T16:13:34;1.10;;;0.82;;
17193;SDS011;8713;48.388;10.928;2022-09-13T16:14:44;1.13;;;0.70;;
17193;SDS011;8713;48.388;10.928;2022-09-13T16:15:55;0.88;;;0.75;;
17193;SDS011;8713;48.388;10.928;2022-09-13T16:17:06;0.82;;;0.70;;